Town Of 1770, Australia
Current Conditions -  °F | °C
As of 5:00 PM on Friday 31 Oct 2014 (Local Time) from YGLA Reporting Station
Clear Clear  
Wind Chill: 77°   Ceiling: Unl
Heat Index: 79°   Visibility: 6mi
Dew Point: 64°   Wind: 13mph
Humidity: 65%   Direction: 30°NNE
Pressure: 29.94"   Gusts: NA
Location:  24.15°S, 151.88°E
Report Text: YGLA 310700Z AUTO 03011KT 9999 // NCD 25/18 Q1014
Loading
Personal Weather Stations






























Interactive Weather Map
Tropical Storm Tracking
New forecast layout! Learn more

10-Day Weather Forecast

Advertisements
Track Severe Weather on mobile